Helliar — 2EPP5 — position and weather

sailwx.info

Track history (hours):
 
Tides and Currents Weather Stations Pressure Air Temp Water Temp Dewpoint Dewpoint Depression Visibility Wind Speed Wind Dir Waves Ship Positions

Helliar

Last reported at 2014-Sep-17 17:25 UTC. Time now 2014-Sep-17 17:41 UTC.
Position N 57°25' W 001°44'.

Length 122 m; draft 5.2 m.

Type: Cargo ship. MMSI: 235087119.

Date/timePositionNaut miles runAvg speedWind from/ knotsBaromVisibWave heightAir tempDewpointWater temp
2014-Sep-17 17:25N 57°25' W 001°44'11 0.9
2014-Sep-17 05:33N 57°15' W 001°49'1313.5
2014-Sep-17 04:33N 57°25' W 001°31'1211.7
2014-Sep-17 03:33N 57°36' W 001°40'1211.6
2014-Sep-17 02:33N 57°46' W 001°51'7011.4
2014-Sep-16 20:27N 58°52' W 002°34'1010.8
2014-Sep-16 19:33N 58°60' W 002°44'7 7.2
2014-Sep-16 18:33N 58°60' W 002°58'0 0.0
2014-Sep-16 17:33N 58°60' W 002°58'0 0.0
2014-Sep-16 16:33N 58°60' W 002°58'0 0.0
2014-Sep-16 15:33N 58°60' W 002°58'0 0.0
2014-Sep-16 14:33N 58°60' W 002°58'0 0.0
2014-Sep-16 13:33N 58°60' W 002°58'0 0.0
2014-Sep-16 12:33N 58°60' W 002°58'9 9.4
2014-Sep-16 11:33N 58°59' W 002°40'7515.0
2014-Sep-16 06:33N 57°47' W 001°55'1313.5
2014-Sep-16 05:33N 57°36' W 001°41'1212.1
2014-Sep-16 04:33N 57°24' W 001°46'1413.4
2014-Sep-16 03:31N 57°12' W 001°58'10 1.6
2014-Sep-15 21:33N 57°21' W 001°50'1413.8
2014-Sep-15 20:33N 57°34' W 001°43'1414.3
2014-Sep-15 19:34N 57°48' W 001°49'7515.0
2014-Sep-15 14:33N 58°58' W 002°40'10 9.5
2014-Sep-15 13:33N 58°60' W 002°58'0 0.0
2014-Sep-15 12:30N 58°60' W 002°58'0 0.0
2014-Sep-15 11:33N 58°60' W 002°58'0 0.0
2014-Sep-15 10:33N 58°60' W 002°58'0 0.0
2014-Sep-15 09:33N 58°60' W 002°58'0 0.0
2014-Sep-15 08:33N 58°60' W 002°58'0 0.0
2014-Sep-15 07:33N 58°60' W 002°58'0 0.0
2014-Sep-15 06:30N 58°60' W 002°58'0 0.0
2014-Sep-15 05:33N 58°60' W 002°58'0 0.0
2014-Sep-15 04:33N 58°60' W 002°58'0 0.0
2014-Sep-15 03:33N 58°60' W 002°58'0 0.0
2014-Sep-15 02:33N 58°60' W 002°58'0 0.0
2014-Sep-15 01:30N 58°60' W 002°58'0 0.0
2014-Sep-15 00:33N 58°60' W 002°58'0 0.0
2014-Sep-14 23:33N 58°60' W 002°58'2 2.0
2014-Sep-14 22:33N 59°01' W 002°56'1312.5
2014-Sep-14 21:33N 58°55' W 002°36'7515.0
2014-Sep-14 16:34N 57°44' W 001°48'1413.2
2014-Sep-14 15:30N 57°30' W 001°44'22 2.3
2014-Sep-14 06:09N 57°10' W 002°00'2112.3
2014-Sep-14 04:26N 57°26' W 001°34'1213.2
2014-Sep-14 03:33N 57°38' W 001°34'1412.9
2014-Sep-14 02:27N 57°52' W 001°34'76 3.2
2014-Sep-13 02:33N 59°02' W 002°31'1313.2
2014-Sep-13 01:33N 59°01' W 002°57'0 0.2
2014-Sep-13 00:33N 59°01' W 002°57'1211.7
2014-Sep-12 23:33N 58°55' W 002°38'6715.1
2014-Sep-12 19:06N 57°52' W 001°54'916.0
2014-Sep-12 18:34N 57°44' W 001°49'1616.3
2014-Sep-12 17:34N 57°28' W 001°43'1514.6
2014-Sep-12 16:33N 57°15' W 001°55'2 0.2
2014-Sep-12 05:34N 57°15' W 001°51'1212.2
2014-Sep-12 04:34N 57°25' W 001°37'1110.5
2014-Sep-12 03:34N 57°35' W 001°40'1312.7
2014-Sep-12 02:34N 57°48' W 001°38'1713.4
2014-Sep-12 01:19N 58°05' W 001°35'66 3.0
2014-Sep-11 03:18N 59°05' W 002°26'1012.9
2014-Sep-11 02:33N 59°00' W 002°43'8 7.9
2014-Sep-11 01:32N 58°60' W 002°58'2 1.7
2014-Sep-11 00:33N 59°01' W 002°57'1312.6
2014-Sep-10 23:33N 58°54' W 002°37'7314.6
2014-Sep-10 18:33N 57°46' W 001°50'1817.7
2014-Sep-10 17:34N 57°28' W 001°45'23 2.4
2014-Sep-10 08:04N 57°09' W 002°05'0 0.0
2014-Sep-10 07:31N 57°09' W 002°05'0 0.0
2014-Sep-10 06:31N 57°09' W 002°05'0 0.0
2014-Sep-10 05:31N 57°09' W 002°05'2 1.7
2014-Sep-10 04:32N 57°09' W 002°02'1212.3
2014-Sep-10 03:33N 57°19' W 001°48'1212.0
2014-Sep-10 02:33N 57°28' W 001°34'1111.4
2014-Sep-10 01:33N 57°39' W 001°41'1413.7
2014-Sep-10 00:33N 57°51' W 001°51'6913.2
2014-Sep-09 19:21N 58°55' W 002°37'1214.9
2014-Sep-09 18:33N 59°01' W 002°57'1 1.3
2014-Sep-09 17:32N 58°60' W 002°58'0 0.0
2014-Sep-09 16:32N 58°60' W 002°58'0 0.0
2014-Sep-09 15:32N 58°60' W 002°58'0 0.0
2014-Sep-09 14:32N 58°60' W 002°58'0 0.0
2014-Sep-09 13:32N 58°60' W 002°58'0 0.0
2014-Sep-09 12:32N 58°60' W 002°58'2 2.0
2014-Sep-09 11:33N 59°01' W 002°56'1212.2
2014-Sep-09 10:33N 58°53' W 002°37'1913.6
2014-Sep-09 09:08N 58°35' W 002°29'5114.3
2014-Sep-09 05:33N 57°47' W 001°52'1717.2
2014-Sep-09 04:34N 57°31' W 001°43'1615.9
2014-Sep-09 03:33N 57°15' W 001°51'10 9.9
2014-Sep-09 02:31N 57°09' W 002°05'0 0.0
2014-Sep-09 01:31N 57°09' W 002°05'0 0.0
2014-Sep-09 00:31N 57°09' W 002°05'0 0.0
2014-Sep-08 23:34N 57°09' W 002°05'11 8.2
2014-Sep-08 22:12N 57°17' W 001°52'1116.7
2014-Sep-08 21:34N 57°27' W 001°44'1616.3
2014-Sep-08 20:34N 57°43' W 001°50'7514.7
2014-Sep-08 15:29N 58°54' W 002°34'1213.0
2014-Sep-08 14:33N 59°01' W 002°54'3 2.6
2014-Sep-08 13:32N 58°60' W 002°58'0 0.0
2014-Sep-08 12:32N 58°60' W 002°58'0 0.0
2014-Sep-08 11:32N 58°60' W 002°58'0 0.0
2014-Sep-08 10:29N 58°60' W 002°58'0 0.0
2014-Sep-08 09:32N 58°60' W 002°58'0 0.0
2014-Sep-08 08:32N 58°60' W 002°58'0 0.0
2014-Sep-08 07:32N 58°60' W 002°58'0 0.0
2014-Sep-08 06:32N 58°60' W 002°58'0 0.0
2014-Sep-08 05:32N 58°60' W 002°58'0 0.0
2014-Sep-08 04:32N 58°60' W 002°58'0 0.0
2014-Sep-08 03:32N 58°60' W 002°58'0 0.0
2014-Sep-08 02:32N 58°60' W 002°58'0 0.0
2014-Sep-08 01:32N 58°60' W 002°58'0 0.0
2014-Sep-08 00:33N 58°60' W 002°58'5 5.1
2014-Sep-07 23:33N 59°00' W 002°49'1211.7
2014-Sep-07 22:34N 58°51' W 002°35'  
Track history (hours):
 
Tides and Currents Weather Stations Pressure Air Temp Water Temp Dewpoint Dewpoint Depression Visibility Wind Speed Wind Dir Waves Ship Positions

Helliar

Last reported at 2014-Sep-17 17:25 UTC. Time now 2014-Sep-17 17:41 UTC.
Position N 57°25' W 001°44'.

Length 122 m; draft 5.2 m.

Type: Cargo ship. MMSI: 235087119.

Date/timePositionNaut miles runAvg speedWind from/ knotsBaromVisibWave heightAir tempDewpointWater temp
2014-Sep-17 17:25N 57°25' W 001°44'11 0.9
2014-Sep-17 05:33N 57°15' W 001°49'1313.5
2014-Sep-17 04:33N 57°25' W 001°31'1211.7
2014-Sep-17 03:33N 57°36' W 001°40'1211.6
2014-Sep-17 02:33N 57°46' W 001°51'7011.4
2014-Sep-16 20:27N 58°52' W 002°34'1010.8
2014-Sep-16 19:33N 58°60' W 002°44'7 7.2
2014-Sep-16 18:33N 58°60' W 002°58'0 0.0
2014-Sep-16 17:33N 58°60' W 002°58'0 0.0
2014-Sep-16 16:33N 58°60' W 002°58'0 0.0
2014-Sep-16 15:33N 58°60' W 002°58'0 0.0
2014-Sep-16 14:33N 58°60' W 002°58'0 0.0
2014-Sep-16 13:33N 58°60' W 002°58'0 0.0
2014-Sep-16 12:33N 58°60' W 002°58'9 9.4
2014-Sep-16 11:33N 58°59' W 002°40'7515.0
2014-Sep-16 06:33N 57°47' W 001°55'1313.5
2014-Sep-16 05:33N 57°36' W 001°41'1212.1
2014-Sep-16 04:33N 57°24' W 001°46'1413.4
2014-Sep-16 03:31N 57°12' W 001°58'10 1.6
2014-Sep-15 21:33N 57°21' W 001°50'1413.8
2014-Sep-15 20:33N 57°34' W 001°43'1414.3
2014-Sep-15 19:34N 57°48' W 001°49'7515.0
2014-Sep-15 14:33N 58°58' W 002°40'10 9.5
2014-Sep-15 13:33N 58°60' W 002°58'0 0.0
2014-Sep-15 12:30N 58°60' W 002°58'0 0.0
2014-Sep-15 11:33N 58°60' W 002°58'0 0.0
2014-Sep-15 10:33N 58°60' W 002°58'0 0.0
2014-Sep-15 09:33N 58°60' W 002°58'0 0.0
2014-Sep-15 08:33N 58°60' W 002°58'0 0.0
2014-Sep-15 07:33N 58°60' W 002°58'0 0.0
2014-Sep-15 06:30N 58°60' W 002°58'0 0.0
2014-Sep-15 05:33N 58°60' W 002°58'0 0.0
2014-Sep-15 04:33N 58°60' W 002°58'0 0.0
2014-Sep-15 03:33N 58°60' W 002°58'0 0.0
2014-Sep-15 02:33N 58°60' W 002°58'0 0.0
2014-Sep-15 01:30N 58°60' W 002°58'0 0.0
2014-Sep-15 00:33N 58°60' W 002°58'0 0.0
2014-Sep-14 23:33N 58°60' W 002°58'2 2.0
2014-Sep-14 22:33N 59°01' W 002°56'1312.5
2014-Sep-14 21:33N 58°55' W 002°36'7515.0
2014-Sep-14 16:34N 57°44' W 001°48'1413.2
2014-Sep-14 15:30N 57°30' W 001°44'22 2.3
2014-Sep-14 06:09N 57°10' W 002°00'2112.3
2014-Sep-14 04:26N 57°26' W 001°34'1213.2
2014-Sep-14 03:33N 57°38' W 001°34'1412.9
2014-Sep-14 02:27N 57°52' W 001°34'76 3.2
2014-Sep-13 02:33N 59°02' W 002°31'1313.2
2014-Sep-13 01:33N 59°01' W 002°57'0 0.2
2014-Sep-13 00:33N 59°01' W 002°57'1211.7
2014-Sep-12 23:33N 58°55' W 002°38'6715.1
2014-Sep-12 19:06N 57°52' W 001°54'916.0
2014-Sep-12 18:34N 57°44' W 001°49'1616.3
2014-Sep-12 17:34N 57°28' W 001°43'1514.6
2014-Sep-12 16:33N 57°15' W 001°55'2 0.2
2014-Sep-12 05:34N 57°15' W 001°51'1212.2
2014-Sep-12 04:34N 57°25' W 001°37'1110.5
2014-Sep-12 03:34N 57°35' W 001°40'1312.7
2014-Sep-12 02:34N 57°48' W 001°38'1713.4
2014-Sep-12 01:19N 58°05' W 001°35'66 3.0
2014-Sep-11 03:18N 59°05' W 002°26'1012.9
2014-Sep-11 02:33N 59°00' W 002°43'8 7.9
2014-Sep-11 01:32N 58°60' W 002°58'2 1.7
2014-Sep-11 00:33N 59°01' W 002°57'1312.6
2014-Sep-10 23:33N 58°54' W 002°37'7314.6
2014-Sep-10 18:33N 57°46' W 001°50'1817.7
2014-Sep-10 17:34N 57°28' W 001°45'23 2.4
2014-Sep-10 08:04N 57°09' W 002°05'0 0.0
2014-Sep-10 07:31N 57°09' W 002°05'0 0.0
2014-Sep-10 06:31N 57°09' W 002°05'0 0.0
2014-Sep-10 05:31N 57°09' W 002°05'2 1.7
2014-Sep-10 04:32N 57°09' W 002°02'1212.3
2014-Sep-10 03:33N 57°19' W 001°48'1212.0
2014-Sep-10 02:33N 57°28' W 001°34'1111.4
2014-Sep-10 01:33N 57°39' W 001°41'1413.7
2014-Sep-10 00:33N 57°51' W 001°51'6913.2
2014-Sep-09 19:21N 58°55' W 002°37'1214.9
2014-Sep-09 18:33N 59°01' W 002°57'1 1.3
2014-Sep-09 17:32N 58°60' W 002°58'0 0.0
2014-Sep-09 16:32N 58°60' W 002°58'0 0.0
2014-Sep-09 15:32N 58°60' W 002°58'0 0.0
2014-Sep-09 14:32N 58°60' W 002°58'0 0.0
2014-Sep-09 13:32N 58°60' W 002°58'0 0.0
2014-Sep-09 12:32N 58°60' W 002°58'2 2.0
2014-Sep-09 11:33N 59°01' W 002°56'1212.2
2014-Sep-09 10:33N 58°53' W 002°37'1913.6
2014-Sep-09 09:08N 58°35' W 002°29'5114.3
2014-Sep-09 05:33N 57°47' W 001°52'1717.2
2014-Sep-09 04:34N 57°31' W 001°43'1615.9
2014-Sep-09 03:33N 57°15' W 001°51'10 9.9
2014-Sep-09 02:31N 57°09' W 002°05'0 0.0
2014-Sep-09 01:31N 57°09' W 002°05'0 0.0
2014-Sep-09 00:31N 57°09' W 002°05'0 0.0
2014-Sep-08 23:34N 57°09' W 002°05'11 8.2
2014-Sep-08 22:12N 57°17' W 001°52'1116.7
2014-Sep-08 21:34N 57°27' W 001°44'1616.3
2014-Sep-08 20:34N 57°43' W 001°50'7514.7
2014-Sep-08 15:29N 58°54' W 002°34'1213.0
2014-Sep-08 14:33N 59°01' W 002°54'3 2.6
2014-Sep-08 13:32N 58°60' W 002°58'0 0.0
2014-Sep-08 12:32N 58°60' W 002°58'0 0.0
2014-Sep-08 11:32N 58°60' W 002°58'0 0.0
2014-Sep-08 10:29N 58°60' W 002°58'0 0.0
2014-Sep-08 09:32N 58°60' W 002°58'0 0.0
2014-Sep-08 08:32N 58°60' W 002°58'0 0.0
2014-Sep-08 07:32N 58°60' W 002°58'0 0.0
2014-Sep-08 06:32N 58°60' W 002°58'0 0.0
2014-Sep-08 05:32N 58°60' W 002°58'0 0.0
2014-Sep-08 04:32N 58°60' W 002°58'0 0.0
2014-Sep-08 03:32N 58°60' W 002°58'0 0.0
2014-Sep-08 02:32N 58°60' W 002°58'0 0.0
2014-Sep-08 01:32N 58°60' W 002°58'0 0.0
2014-Sep-08 00:33N 58°60' W 002°58'5 5.1
2014-Sep-07 23:33N 59°00' W 002°49'1211.7
2014-Sep-07 22:34N 58°51' W 002°35'  

Dump ship's entire track history